Bayonet Point, Florida
Current Conditions -  °F | °C
As of 3:53 AM on Wednesday 22 Oct 2014 (Local Time) from KBKV Reporting Station
Clear Clear  
Wind Chill: 64°   Ceiling: Unl
Heat Index: 64°   Visibility: 10mi
Dew Point: 63°   Wind: 3mph
Humidity: 96%   Direction: 20°NNE
Pressure: 29.95"   Gusts: NA
Location:  28.33°N, 82.7°W
Report Text: KBKV 220753Z AUTO 02003KT 10SM CLR 18/17 A2995 RMK AO2 SLP139 T01780172 $
Loading
Personal Weather Stations






























Interactive Weather Map
Tropical Storm Tracking
New forecast layout! Learn more

10-Day Weather Forecast

Advertisements
Track Severe Weather on mobile